createdAt,value
2023-03-12T00:01:18.671Z,4.69
2023-03-12T00:03:45.570Z,4.71
2023-03-12T00:06:12.624Z,4.72
2023-03-12T00:08:40.125Z,4.74
2023-03-12T00:11:11.535Z,4.71
2023-03-12T00:13:38.608Z,4.74
2023-03-12T00:16:13.688Z,4.72
2023-03-12T00:18:41.085Z,4.73
2023-03-12T00:21:08.638Z,4.70
2023-03-12T00:23:35.855Z,4.67
2023-03-12T00:26:08.353Z,4.62
2023-03-12T00:28:36.228Z,4.59
2023-03-12T00:31:04.585Z,4.53
2023-03-12T00:33:31.171Z,4.48
2023-03-12T00:36:00.890Z,4.38
2023-03-12T00:38:27.395Z,4.30
2023-03-12T00:40:53.817Z,4.23
2023-03-12T00:43:20.305Z,4.15
2023-03-12T00:45:46.778Z,4.06
2023-03-12T00:48:13.371Z,3.98
2023-03-12T00:50:39.921Z,3.93
2023-03-12T00:53:06.785Z,3.88
2023-03-12T00:55:33.305Z,3.83
2023-03-12T00:57:59.713Z,3.78
2023-03-12T01:00:26.487Z,3.76
2023-03-12T01:02:53.048Z,3.74
2023-03-12T01:05:19.882Z,3.74
2023-03-12T01:10:18.802Z,3.73
2023-03-12T01:12:45.110Z,3.76
2023-03-12T01:15:15.474Z,3.78
2023-03-12T01:17:41.881Z,3.80
2023-03-12T01:20:10.983Z,3.78
2023-03-12T01:22:37.561Z,3.77
2023-03-12T01:25:04.115Z,3.73
2023-03-12T01:27:30.456Z,3.72
2023-03-12T01:29:56.824Z,3.68
2023-03-12T01:32:23.597Z,3.67
2023-03-12T01:34:49.962Z,3.65
2023-03-12T01:37:16.283Z,3.61
2023-03-12T01:39:42.624Z,3.58
2023-03-12T01:42:09.242Z,3.52
2023-03-12T01:44:58.143Z,3.44
2023-03-12T01:47:25.813Z,3.43
2023-03-12T01:49:55.719Z,3.38
2023-03-12T01:52:26.538Z,3.34
2023-03-12T01:55:13.465Z,3.28
2023-03-12T01:57:46.147Z,3.29
2023-03-12T02:00:16.103Z,3.28
2023-03-12T02:02:44.583Z,3.26
2023-03-12T02:05:33.180Z,3.28
2023-03-12T02:07:59.560Z,3.26
2023-03-12T02:10:26.476Z,3.26
2023-03-12T02:12:53.175Z,3.24
2023-03-12T02:15:19.888Z,3.24
2023-03-12T02:17:46.548Z,3.23
2023-03-12T02:20:23.938Z,3.21
2023-03-12T02:23:05.635Z,3.20
2023-03-12T02:25:43.908Z,3.17
2023-03-12T02:28:14.602Z,3.19
2023-03-12T02:30:45.810Z,3.16
2023-03-12T02:33:12.821Z,3.16
2023-03-12T02:35:39.400Z,3.13
2023-03-12T02:38:32.044Z,3.07
2023-03-12T02:41:06.676Z,3.09
2023-03-12T02:43:33.019Z,3.08
2023-03-12T02:45:59.567Z,3.07
2023-03-12T02:48:25.998Z,3.08
2023-03-12T02:50:52.349Z,3.09
2023-03-12T02:53:18.719Z,3.10
2023-03-12T02:55:45.133Z,3.13
2023-03-12T02:58:11.484Z,3.16
2023-03-12T03:00:37.908Z,3.20
2023-03-12T03:03:04.318Z,3.25
2023-03-12T03:05:30.665Z,3.30
2023-03-12T03:07:56.991Z,3.35
2023-03-12T03:10:23.384Z,3.39
2023-03-12T03:12:50.048Z,3.43
2023-03-12T03:15:16.500Z,3.45
2023-03-12T03:17:42.810Z,3.44
2023-03-12T03:20:11.930Z,3.45
2023-03-12T03:22:39.254Z,3.43
2023-03-12T03:25:07.768Z,3.43
2023-03-12T03:27:34.235Z,3.40
2023-03-12T03:30:00.672Z,3.37
2023-03-12T03:32:27.372Z,3.34
2023-03-12T03:34:53.813Z,3.30
2023-03-12T03:37:20.120Z,3.26
2023-03-12T03:39:46.486Z,3.22
2023-03-12T03:42:12.853Z,3.18
2023-03-12T03:44:39.166Z,3.15
2023-03-12T03:47:05.668Z,3.13
2023-03-12T03:49:32.073Z,3.11
2023-03-12T03:51:58.425Z,3.10
2023-03-12T03:54:24.782Z,3.08
2023-03-12T03:56:51.092Z,3.07
2023-03-12T03:59:17.444Z,3.08
2023-03-12T04:01:43.749Z,3.09
2023-03-12T04:04:10.084Z,3.13
2023-03-12T04:06:37.549Z,3.16
2023-03-12T04:09:04.578Z,3.19
2023-03-12T04:11:30.976Z,3.21
2023-03-12T04:13:57.866Z,3.26
2023-03-12T04:16:24.728Z,3.26
2023-03-12T04:18:51.222Z,3.28
2023-03-12T04:21:17.589Z,3.28
2023-03-12T04:23:43.980Z,3.27
2023-03-12T04:26:10.556Z,3.26
2023-03-12T04:28:38.075Z,3.26
2023-03-12T04:31:07.200Z,3.26
2023-03-12T04:33:37.120Z,3.29
2023-03-12T04:36:04.652Z,3.31
2023-03-12T04:38:31.265Z,3.33
2023-03-12T04:41:07.191Z,3.35
2023-03-12T04:43:34.692Z,3.40
2023-03-12T04:46:02.773Z,3.44
2023-03-12T04:48:29.337Z,3.49
2023-03-12T04:50:55.751Z,3.51
2023-03-12T04:53:22.739Z,3.57
2023-03-12T04:55:50.067Z,3.59
2023-03-12T04:58:16.437Z,3.61
2023-03-12T05:00:42.993Z,3.63
2023-03-12T05:03:09.844Z,3.64
2023-03-12T05:05:36.715Z,3.67
2023-03-12T05:08:04.362Z,3.69
2023-03-12T05:10:30.696Z,3.72
2023-03-12T05:12:57.088Z,3.72
2023-03-12T05:15:24.091Z,3.73
2023-03-12T05:17:50.478Z,3.75
2023-03-12T05:20:19.688Z,3.77
2023-03-12T05:22:46.009Z,3.80
2023-03-12T05:25:12.460Z,3.82
2023-03-12T05:27:39.085Z,3.84
2023-03-12T05:30:07.114Z,3.86
2023-03-12T05:32:33.532Z,3.89
2023-03-12T05:34:59.929Z,3.92
2023-03-12T05:37:26.279Z,3.95
2023-03-12T05:39:54.199Z,3.96
2023-03-12T05:42:20.522Z,3.99
2023-03-12T05:44:46.831Z,4.02
2023-03-12T05:47:13.184Z,4.03
2023-03-12T05:49:39.515Z,4.06
2023-03-12T05:52:06.460Z,4.10
2023-03-12T05:54:32.799Z,4.14
2023-03-12T05:56:59.171Z,4.18
2023-03-12T05:59:25.584Z,4.21
2023-03-12T06:01:51.949Z,4.24
2023-03-12T06:04:18.343Z,4.28
2023-03-12T06:06:44.666Z,4.32
2023-03-12T06:09:11.188Z,4.36
2023-03-12T06:11:37.545Z,4.40
2023-03-12T06:14:04.834Z,4.44
2023-03-12T06:16:31.301Z,4.49
2023-03-12T06:19:00.262Z,4.51
2023-03-12T06:21:30.759Z,4.54
2023-03-12T06:23:57.810Z,4.60
2023-03-12T06:26:24.599Z,4.62
2023-03-12T06:28:52.068Z,4.63
2023-03-12T06:31:20.471Z,4.64
2023-03-12T06:33:47.379Z,4.66
2023-03-12T06:36:13.884Z,4.67
2023-03-12T06:38:40.933Z,4.69
2023-03-12T06:41:13.031Z,4.70
2023-03-12T06:43:40.123Z,4.72
2023-03-12T06:46:08.767Z,4.74
2023-03-12T06:48:41.242Z,4.76
2023-03-12T06:51:10.516Z,4.80
2023-03-12T06:53:37.167Z,4.82
2023-03-12T06:56:04.247Z,4.85
2023-03-12T06:58:31.483Z,4.88
2023-03-12T07:00:58.220Z,4.90
2023-03-12T07:03:24.881Z,4.89
2023-03-12T07:05:51.829Z,4.89
2023-03-12T07:11:18.941Z,4.88
2023-03-12T07:13:48.603Z,4.86
2023-03-12T07:18:59.074Z,4.87
2023-03-12T07:21:25.761Z,4.90
2023-03-12T07:23:52.702Z,4.87
2023-03-12T07:26:20.084Z,4.86
2023-03-12T07:28:46.801Z,4.87
2023-03-12T07:31:13.363Z,4.87
2023-03-12T07:33:40.057Z,4.88
2023-03-12T07:36:07.453Z,4.86
2023-03-12T07:38:59.061Z,4.79
2023-03-12T07:41:25.646Z,4.83
2023-03-12T07:43:52.176Z,4.85
2023-03-12T07:46:18.938Z,4.88
2023-03-12T07:48:45.444Z,4.92
2023-03-12T07:51:12.005Z,4.95
2023-03-12T07:53:38.641Z,4.99
2023-03-12T07:56:05.754Z,5.01
2023-03-12T07:58:32.774Z,4.99
2023-03-12T08:01:08.505Z,5.00
2023-03-12T08:03:43.176Z,4.99
2023-03-12T08:06:10.083Z,5.01
2023-03-12T08:08:40.934Z,5.02
2023-03-12T08:11:08.634Z,5.04
2023-03-12T08:13:38.291Z,5.05
2023-03-12T08:16:09.536Z,5.07
2023-03-12T08:18:36.474Z,5.09
2023-03-12T08:21:38.338Z,5.08
2023-03-12T08:24:53.257Z,5.09
2023-03-12T08:27:40.116Z,5.14
2023-03-12T08:30:43.938Z,5.19
2023-03-12T08:33:31.820Z,5.22
2023-03-12T08:38:39.542Z,5.34
2023-03-12T08:41:06.238Z,5.39
2023-03-12T08:43:38.691Z,5.44
2023-03-12T08:46:05.234Z,5.53
2023-03-12T08:48:38.459Z,5.57
2023-03-12T08:51:11.431Z,5.60
2023-03-12T08:53:38.129Z,5.68
2023-03-12T08:56:33.842Z,5.70
2023-03-12T08:59:52.800Z,5.78
2023-03-12T09:01:54.406Z,5.83
2023-03-12T09:04:21.101Z,5.83
2023-03-12T09:06:47.727Z,5.83
2023-03-12T09:10:13.055Z,5.79
2023-03-12T09:16:24.536Z,5.78
2023-03-12T09:18:54.646Z,5.72
2023-03-12T09:21:40.562Z,5.61
2023-03-12T09:35:48.292Z,5.41
2023-03-12T09:38:15.558Z,5.41
2023-03-12T09:43:53.024Z,5.38
2023-03-12T09:47:00.850Z,5.37
2023-03-12T09:50:02.926Z,5.33
2023-03-12T09:52:48.794Z,5.35
2023-03-12T09:55:21.758Z,5.33
2023-03-12T09:58:25.608Z,5.30
2023-03-12T10:04:23.711Z,5.21
2023-03-12T10:07:03.682Z,5.18
2023-03-12T10:12:31.019Z,5.06
2023-03-12T10:15:23.657Z,4.95
2023-03-12T10:18:04.314Z,4.95
2023-03-12T10:21:08.434Z,4.91
2023-03-12T10:23:50.955Z,4.93
2023-03-12T10:26:32.300Z,4.94
2023-03-12T10:29:16.119Z,4.93
2023-03-12T10:31:55.247Z,4.92
2023-03-12T10:34:30.683Z,4.89
2023-03-12T10:37:03.069Z,4.85
2023-03-12T10:39:29.647Z,4.78
2023-03-12T10:42:00.112Z,4.74
2023-03-12T10:44:28.886Z,4.68
2023-03-12T10:47:25.661Z,4.63
2023-03-12T10:49:53.375Z,4.65
2023-03-12T10:52:22.446Z,4.61
2023-03-12T10:54:52.214Z,4.59
2023-03-12T10:57:19.554Z,4.56
2023-03-12T10:59:48.240Z,4.55
2023-03-12T11:02:24.025Z,4.50
2023-03-12T11:04:52.463Z,4.52
2023-03-12T11:07:23.803Z,4.50
2023-03-12T11:10:15.127Z,4.49
2023-03-12T11:12:52.806Z,4.53
2023-03-12T11:15:45.939Z,4.54
2023-03-12T11:18:29.246Z,4.57
2023-03-12T11:21:11.059Z,4.62
2023-03-12T11:24:07.325Z,4.64
2023-03-12T11:26:44.779Z,4.65
2023-03-12T11:29:33.354Z,4.67
2023-03-12T11:32:16.781Z,4.72
2023-03-12T11:34:47.756Z,4.76
2023-03-12T11:37:46.005Z,4.79
2023-03-12T11:40:37.764Z,4.82
2023-03-12T11:43:43.248Z,4.86
2023-03-12T11:46:13.351Z,4.95
2023-03-12T11:49:14.356Z,4.93
2023-03-12T11:52:11.040Z,4.98
2023-03-12T11:54:59.348Z,5.00
2023-03-12T11:57:38.118Z,5.07
2023-03-12T12:00:21.146Z,5.06
2023-03-12T12:02:58.039Z,5.08
2023-03-12T12:05:41.871Z,5.15
2023-03-12T12:08:29.623Z,5.17
2023-03-12T12:11:12.917Z,5.21
2023-03-12T12:13:48.714Z,5.26
2023-03-12T12:16:37.292Z,5.28
2023-03-12T12:19:22.162Z,5.32
2023-03-12T12:21:57.198Z,5.35
2023-03-12T12:24:26.580Z,5.42
2023-03-12T12:27:01.819Z,5.43
2023-03-12T12:29:43.620Z,5.47
2023-03-12T12:32:20.254Z,5.49
2023-03-12T12:35:04.973Z,5.52
2023-03-12T12:37:58.530Z,5.56
2023-03-12T12:40:41.859Z,5.59
2023-03-12T12:43:30.768Z,5.64
2023-03-12T12:46:02.051Z,5.69
2023-03-12T12:48:35.076Z,5.72
2023-03-12T12:51:02.198Z,5.75
2023-03-12T12:53:46.826Z,5.79
2023-03-12T12:56:31.439Z,5.80
2023-03-12T12:59:21.425Z,5.84
2023-03-12T13:01:51.023Z,5.90
2023-03-12T13:04:28.485Z,5.91
2023-03-12T13:07:01.027Z,5.98
2023-03-12T13:09:55.871Z,6.00
2023-03-12T13:12:25.410Z,6.08
2023-03-12T13:14:55.048Z,6.15
2023-03-12T13:17:27.333Z,6.20
2023-03-12T13:20:01.622Z,6.26
2023-03-12T13:22:55.226Z,6.32
2023-03-12T13:25:43.542Z,6.38
2023-03-12T13:28:34.768Z,6.43
2023-03-12T13:31:29.166Z,6.49
2023-03-12T13:34:08.971Z,6.55
2023-03-12T13:36:38.370Z,6.59
2023-03-12T13:39:07.928Z,6.64
2023-03-12T13:42:00.727Z,6.71
2023-03-12T13:44:27.189Z,6.78
2023-03-12T13:47:26.964Z,6.83
2023-03-12T13:50:08.404Z,6.92
2023-03-12T13:52:41.425Z,6.99
2023-03-12T13:55:08.022Z,7.06
2023-03-12T13:57:44.746Z,7.15
2023-03-12T14:00:31.622Z,7.19
2023-03-12T14:03:04.955Z,7.26
2023-03-12T14:05:43.077Z,7.35
2023-03-12T14:08:47.088Z,7.40
2023-03-12T14:11:13.532Z,7.53
2023-03-12T14:13:39.987Z,7.61
2023-03-12T14:16:23.012Z,7.67
2023-03-12T14:18:52.085Z,7.79
2023-03-12T14:21:19.975Z,7.87
2023-03-12T14:23:51.858Z,7.93
2023-03-12T14:26:25.802Z,8.03
2023-03-12T14:29:00.472Z,8.11
2023-03-12T14:31:30.407Z,8.21
2023-03-12T14:34:12.307Z,8.28
2023-03-12T14:37:11.507Z,8.37
2023-03-12T14:39:43.602Z,8.51
2023-03-12T14:42:18.359Z,8.57
2023-03-12T14:45:10.257Z,8.63
2023-03-12T14:48:13.473Z,8.70
2023-03-12T14:50:41.050Z,8.79
2023-03-12T14:53:13.453Z,8.82
2023-03-12T14:55:39.968Z,8.87
2023-03-12T14:58:16.091Z,8.89
2023-03-12T15:00:45.567Z,8.94
2023-03-12T15:03:16.549Z,8.95
2023-03-12T15:05:47.646Z,9.01
2023-03-12T15:08:14.937Z,9.04
2023-03-12T15:10:48.742Z,9.06
2023-03-12T15:13:17.248Z,9.09
2023-03-12T15:15:47.726Z,9.13
2023-03-12T15:18:18.989Z,9.15
2023-03-12T15:20:48.101Z,9.18
2023-03-12T15:23:17.289Z,9.22
2023-03-12T15:25:45.050Z,9.28
2023-03-12T15:28:11.451Z,9.33
2023-03-12T15:30:39.603Z,9.37
2023-03-12T15:33:21.817Z,9.39
2023-03-12T15:36:03.506Z,9.44
2023-03-12T15:38:32.849Z,9.54
2023-03-12T15:41:08.373Z,9.58
2023-03-12T15:43:35.383Z,9.63
2023-03-12T15:46:05.260Z,9.67
2023-03-12T15:48:38.453Z,9.71
2023-03-12T15:51:13.204Z,9.75
2023-03-12T15:53:39.833Z,9.85
2023-03-12T15:56:22.210Z,9.86
2023-03-12T15:58:59.653Z,9.92
2023-03-12T16:01:28.133Z,9.97
2023-03-12T16:03:55.271Z,9.99
2023-03-12T16:06:25.777Z,10.02
2023-03-12T16:09:01.264Z,10.04
2023-03-12T16:11:31.324Z,10.09
2023-03-12T16:14:04.398Z,10.10
2023-03-12T16:16:30.929Z,10.14
2023-03-12T16:18:57.460Z,10.19
2023-03-12T16:21:24.075Z,10.20
2023-03-12T16:23:50.571Z,10.19
2023-03-12T16:26:17.112Z,10.20
2023-03-12T16:28:44.004Z,10.20
2023-03-12T16:31:15.606Z,10.18
2023-03-12T16:33:44.614Z,10.22
2023-03-12T16:36:16.521Z,10.21
2023-03-12T16:38:44.182Z,10.26
2023-03-12T16:41:16.033Z,10.25
2023-03-12T16:43:46.577Z,10.28
2023-03-12T16:46:19.479Z,10.29
2023-03-12T16:48:50.067Z,10.32
2023-03-12T16:51:16.656Z,10.32
2023-03-12T16:53:43.525Z,10.32
2023-03-12T16:56:17.487Z,10.30
2023-03-12T16:58:45.390Z,10.35
2023-03-12T17:01:14.503Z,10.36
2023-03-12T17:03:46.494Z,10.38
2023-03-12T17:06:16.471Z,10.40
2023-03-12T17:08:43.652Z,10.42
2023-03-12T17:11:29.228Z,10.38
2023-03-12T17:14:00.177Z,10.39
2023-03-12T17:16:26.895Z,10.40
2023-03-12T17:18:53.602Z,10.38
2023-03-12T17:21:20.995Z,10.38
2023-03-12T17:23:53.571Z,10.37
2023-03-12T17:26:20.057Z,10.38
2023-03-12T17:28:46.652Z,10.38
2023-03-12T17:31:13.260Z,10.38
2023-03-12T17:33:39.912Z,10.38
2023-03-12T17:36:09.172Z,10.36
2023-03-12T17:38:36.394Z,10.37
2023-03-12T17:41:04.678Z,10.37
2023-03-12T17:43:34.984Z,10.36
2023-03-12T17:46:09.242Z,10.34
2023-03-12T17:48:35.964Z,10.37
2023-03-12T17:51:07.286Z,10.34
2023-03-12T17:53:34.143Z,10.36
2023-03-12T17:56:00.547Z,10.36
2023-03-12T17:58:27.373Z,10.37
2023-03-12T18:00:53.841Z,10.35
2023-03-12T18:03:20.258Z,10.36
2023-03-12T18:05:49.851Z,10.36
2023-03-12T18:08:16.677Z,10.37
2023-03-12T18:10:43.318Z,10.40
2023-03-12T18:13:10.362Z,10.42
2023-03-12T18:15:37.232Z,10.42
2023-03-12T18:18:04.932Z,10.45
2023-03-12T18:20:38.585Z,10.45
2023-03-12T18:23:05.937Z,10.44
2023-03-12T18:25:32.519Z,10.46
2023-03-12T18:27:58.978Z,10.47
2023-03-12T18:30:25.847Z,10.49
2023-03-12T18:32:52.418Z,10.48
2023-03-12T18:35:19.051Z,10.50
2023-03-12T18:37:46.005Z,10.48
2023-03-12T18:40:12.809Z,10.48
2023-03-12T18:42:44.296Z,10.52
2023-03-12T18:45:11.913Z,10.55
2023-03-12T18:47:44.666Z,10.59
2023-03-12T18:50:12.629Z,10.61
2023-03-12T18:52:39.128Z,10.63
2023-03-12T18:55:05.848Z,10.64
2023-03-12T18:57:32.319Z,10.65
2023-03-12T18:59:59.471Z,10.65
2023-03-12T19:02:26.094Z,10.67
2023-03-12T19:04:55.496Z,10.67
2023-03-12T19:07:22.686Z,10.68
2023-03-12T19:12:52.821Z,10.70
2023-03-12T19:15:21.921Z,10.71
2023-03-12T19:17:48.444Z,10.73
2023-03-12T19:20:15.663Z,10.74
2023-03-12T19:22:42.088Z,10.77
2023-03-12T19:25:09.017Z,10.80
2023-03-12T19:27:35.533Z,10.82
2023-03-12T19:30:02.220Z,10.84
2023-03-12T19:32:41.982Z,10.81
2023-03-12T19:35:11.154Z,10.82
2023-03-12T19:37:37.639Z,10.84
2023-03-12T19:40:05.846Z,10.82
2023-03-12T19:42:32.801Z,10.82
2023-03-12T19:44:59.365Z,10.83
2023-03-12T19:47:26.750Z,10.85
2023-03-12T19:49:53.396Z,10.84
2023-03-12T19:52:20.195Z,10.84
2023-03-12T19:54:54.663Z,10.82
2023-03-12T19:57:29.638Z,10.82
2023-03-12T19:59:56.186Z,10.85
2023-03-12T20:02:22.758Z,10.82
2023-03-12T20:04:49.418Z,10.84
2023-03-12T20:07:17.404Z,10.84
2023-03-12T20:09:43.803Z,10.84
2023-03-12T20:12:10.350Z,10.84
2023-03-12T20:14:36.754Z,10.82
2023-03-12T20:17:03.341Z,10.82
2023-03-12T20:19:29.886Z,10.81
2023-03-12T20:21:57.232Z,10.81
2023-03-12T20:24:24.077Z,10.81
2023-03-12T20:26:50.598Z,10.81
2023-03-12T20:29:17.042Z,10.81
2023-03-12T20:31:43.630Z,10.80
2023-03-12T20:34:10.153Z,10.79
2023-03-12T20:36:36.613Z,10.79
2023-03-12T20:39:03.146Z,10.79
2023-03-12T20:41:30.641Z,10.80
2023-03-12T20:43:57.697Z,10.81
2023-03-12T20:46:24.566Z,10.81
2023-03-12T20:48:51.616Z,10.80
2023-03-12T20:51:18.304Z,10.81
2023-03-12T20:53:44.953Z,10.82
2023-03-12T20:56:12.987Z,10.83
2023-03-12T20:58:39.571Z,10.87
2023-03-12T21:01:06.272Z,10.88
2023-03-12T21:03:32.943Z,10.90
2023-03-12T21:06:01.394Z,10.91
2023-03-12T21:08:29.072Z,10.94
2023-03-12T21:10:55.748Z,10.95
2023-03-12T21:13:23.618Z,10.96
2023-03-12T21:15:50.729Z,10.98
2023-03-12T21:18:17.918Z,11.03
2023-03-12T21:20:44.917Z,11.06
2023-03-12T21:23:11.558Z,11.12
2023-03-12T21:25:40.092Z,11.13
2023-03-12T21:28:09.193Z,11.16
2023-03-12T21:30:35.964Z,11.18
2023-03-12T21:33:03.190Z,11.19
2023-03-12T21:35:29.881Z,11.20
2023-03-12T21:37:56.870Z,11.21
2023-03-12T21:40:23.957Z,11.23
2023-03-12T21:42:50.699Z,11.23
2023-03-12T21:45:17.509Z,11.23
2023-03-12T21:47:44.076Z,11.25
2023-03-12T21:50:11.180Z,11.26
2023-03-12T21:52:43.099Z,11.27
2023-03-12T21:55:10.341Z,11.25
2023-03-12T21:57:36.822Z,11.25
2023-03-12T22:00:05.131Z,11.24
2023-03-12T22:02:31.945Z,11.25
2023-03-12T22:04:59.909Z,11.24
2023-03-12T22:07:29.813Z,11.25
2023-03-12T22:09:56.432Z,11.25
2023-03-12T22:12:22.990Z,11.27
2023-03-12T22:14:49.528Z,11.28
2023-03-12T22:17:17.080Z,11.29
2023-03-12T22:19:43.701Z,11.31
2023-03-12T22:22:10.169Z,11.31
2023-03-12T22:24:37.501Z,11.30
2023-03-12T22:27:06.565Z,11.31
2023-03-12T22:29:34.154Z,11.32
2023-03-12T22:32:00.955Z,11.33
2023-03-12T22:34:29.443Z,11.33
2023-03-12T22:36:56.015Z,11.33
2023-03-12T22:39:22.495Z,11.32
2023-03-12T22:41:53.664Z,11.32
2023-03-12T22:44:20.253Z,11.31
2023-03-12T22:46:46.870Z,11.32
2023-03-12T22:49:15.064Z,11.30
2023-03-12T22:51:41.934Z,11.29
2023-03-12T22:54:08.368Z,11.31
2023-03-12T22:56:34.940Z,11.32
2023-03-12T22:59:01.448Z,11.31
2023-03-12T23:01:28.057Z,11.30
2023-03-12T23:03:54.533Z,11.31
2023-03-12T23:06:23.973Z,11.30
2023-03-12T23:08:51.834Z,11.32
2023-03-12T23:11:18.844Z,11.31
2023-03-12T23:13:46.661Z,11.32
2023-03-12T23:16:16.922Z,11.31
2023-03-12T23:18:44.622Z,11.31
2023-03-12T23:21:14.001Z,11.29
2023-03-12T23:23:43.381Z,11.30
2023-03-12T23:26:19.370Z,11.27
2023-03-12T23:28:51.282Z,11.31
2023-03-12T23:31:18.044Z,11.32
2023-03-12T23:33:44.784Z,11.32
2023-03-12T23:36:16.152Z,11.32
2023-03-12T23:38:43.140Z,11.34
2023-03-12T23:41:21.074Z,11.30
2023-03-12T23:43:48.019Z,11.34
2023-03-12T23:46:17.065Z,11.37
2023-03-12T23:48:45.658Z,11.38
2023-03-12T23:51:25.114Z,11.37
2023-03-12T23:53:55.686Z,11.38
2023-03-12T23:56:24.870Z,11.39
2023-03-12T23:58:51.592Z,11.43
